Time;durP1;ratioP1;P1;durP2;ratioP2;P2;SDS_P1;SDS_P2;PMS_P1;PMS_P2;Temp;Humidity;BMP_temperature;BMP_pressure;BME280_temperature;BME280_humidity;BME280_pressure;Samples;Min_cycle;Max_cycle;Signal;HPM_P1;HPM_P2
2022/07/14 00:00:19;;;;;;;0.63;0.63;;;22.70;99.90;;;;;;5057262;28;20230;-63
2022/07/14 00:02:47;;;;;;;0.50;0.50;;;22.70;99.90;;;;;;5063305;28;20713;-63
2022/07/14 00:05:14;;;;;;;0.68;0.68;;;22.70;99.90;;;;;;5060922;28;20731;-62
2022/07/14 00:07:41;;;;;;;0.43;0.43;;;22.60;99.90;;;;;;5058476;28;20219;-62
2022/07/14 00:10:09;;;;;;;0.43;0.43;;;22.50;99.90;;;;;;5084570;28;20613;-63
2022/07/14 00:12:36;;;;;;;0.50;0.50;;;22.60;99.90;;;;;;5078317;28;20227;-63
2022/07/14 00:15:04;;;;;;;0.50;0.50;;;22.60;99.90;;;;;;5081256;28;20233;-63
2022/07/14 00:17:30;;;;;;;0.50;0.50;;;22.60;99.90;;;;;;5077121;28;20237;-63
2022/07/14 00:19:59;;;;;;;0.60;0.60;;;22.60;99.90;;;;;;5074439;28;20213;-63
2022/07/14 00:22:27;;;;;;;0.40;0.40;;;22.60;99.90;;;;;;5068722;28;20211;-63
2022/07/14 00:24:54;;;;;;;0.60;0.60;;;22.60;99.90;;;;;;5073289;28;20552;-63
2022/07/14 00:27:21;;;;;;;0.63;0.45;;;22.60;99.90;;;;;;5080596;28;20310;-63
2022/07/14 00:29:49;;;;;;;0.40;0.40;;;22.70;99.90;;;;;;5070652;28;20203;-66
2022/07/14 00:32:16;;;;;;;0.45;0.45;;;22.70;99.90;;;;;;5077151;28;20203;-62
2022/07/14 00:34:43;;;;;;;0.60;0.60;;;22.60;99.90;;;;;;5070547;28;20229;-62
2022/07/14 00:37:11;;;;;;;0.63;0.63;;;22.70;99.90;;;;;;5077877;28;20227;-62
2022/07/14 00:39:56;;;;;;;0.68;0.57;;;22.70;99.90;;;;;;5078574;28;20230;-62
2022/07/14 00:42:35;;;;;;;0.73;0.60;;;22.70;99.90;;;;;;5076537;28;20288;-62
2022/07/14 00:45:03;;;;;;;0.60;0.60;;;22.70;99.90;;;;;;5072650;28;20619;-63
2022/07/14 00:47:30;;;;;;;0.38;0.38;;;22.70;99.90;;;;;;5073219;28;20229;-66
2022/07/14 00:49:57;;;;;;;0.50;0.50;;;22.70;99.90;;;;;;5071873;28;20229;-62
2022/07/14 00:52:28;;;;;;;0.55;0.52;;;22.70;99.90;;;;;;5068152;28;20701;-62
2022/07/14 00:54:55;;;;;;;0.60;0.60;;;22.60;99.90;;;;;;5080855;28;20225;-63
2022/07/14 00:57:23;;;;;;;0.40;0.40;;;22.60;99.90;;;;;;5069460;28;20446;-63
2022/07/14 00:59:50;;;;;;;0.70;0.70;;;22.50;99.90;;;;;;5079698;28;20203;-64
2022/07/14 01:02:18;;;;;;;0.40;0.40;;;22.40;99.90;;;;;;5060779;28;20200;-62
2022/07/14 01:04:46;;;;;;;0.50;0.50;;;22.40;99.90;;;;;;5077183;28;20202;-62
2022/07/14 01:07:13;;;;;;;0.60;0.60;;;22.30;99.90;;;;;;5068597;28;20598;-62
2022/07/14 01:09:41;;;;;;;0.38;0.38;;;22.20;99.90;;;;;;5071426;28;20203;-62
2022/07/14 01:12:09;;;;;;;0.50;0.50;;;22.10;99.90;;;;;;5079374;28;20202;-62
2022/07/14 01:14:36;;;;;;;0.63;0.55;;;22.10;99.90;;;;;;5071221;28;20251;-62
2022/07/14 01:17:04;;;;;;;0.60;0.60;;;22.00;99.90;;;;;;5079384;28;20249;-62
2022/07/14 01:19:31;;;;;;;0.40;0.40;;;22.10;99.90;;;;;;5064686;28;20200;-62
2022/07/14 01:22:00;;;;;;;0.40;0.40;;;22.10;99.90;;;;;;5070608;28;20748;-62
2022/07/14 01:24:28;;;;;;;0.40;0.40;;;22.00;99.90;;;;;;5077940;28;20199;-61
2022/07/14 01:26:55;;;;;;;1.45;0.52;;;22.00;99.90;;;;;;5072760;28;20222;-62
2022/07/14 01:29:23;;;;;;;0.35;0.32;;;21.90;99.90;;;;;;5075354;28;20222;-62
2022/07/14 01:31:50;;;;;;;0.50;0.50;;;21.80;99.90;;;;;;5069871;28;20205;-62
2022/07/14 01:34:17;;;;;;;0.50;0.50;;;21.70;99.90;;;;;;5063606;28;20230;-62
2022/07/14 01:36:44;;;;;;;0.75;0.73;;;21.70;99.90;;;;;;5066629;28;20223;-62
2022/07/14 01:39:13;;;;;;;0.30;0.30;;;21.60;99.90;;;;;;5072127;28;20758;-63
2022/07/14 01:41:40;;;;;;;0.70;0.70;;;21.60;99.90;;;;;;5078355;28;20204;-62
2022/07/14 01:44:07;;;;;;;0.50;0.35;;;21.60;99.90;;;;;;5072616;28;20199;-62
2022/07/14 01:46:33;;;;;;;0.50;0.50;;;21.70;99.90;;;;;;5075731;28;20805;-62
2022/07/14 01:49:00;;;;;;;0.45;0.45;;;21.60;99.90;;;;;;5069209;28;20297;-62
2022/07/14 01:51:27;;;;;;;1.20;0.52;;;21.50;99.90;;;;;;5074058;28;20213;-62
2022/07/14 01:53:54;;;;;;;0.40;0.40;;;21.50;99.90;;;;;;5067123;28;20313;-62
2022/07/14 01:56:23;;;;;;;0.35;0.35;;;21.50;99.90;;;;;;5072707;28;20217;-62
2022/07/14 01:58:50;;;;;;;0.43;0.43;;;21.50;99.90;;;;;;5064629;28;20195;-62
2022/07/14 02:04:01;;;;;;;0.55;0.55;;;21.60;99.90;;;;;;5076553;28;20385;-63
2022/07/14 02:06:29;;;;;;;0.70;0.70;;;21.60;99.90;;;;;;5067279;28;20290;-63
2022/07/14 02:08:56;;;;;;;0.32;0.32;;;21.60;99.90;;;;;;5057700;28;20240;-63
2022/07/14 02:14:09;;;;;;;1.48;0.40;;;21.60;99.90;;;;;;5062713;28;20584;-62
2022/07/14 02:16:36;;;;;;;0.50;0.50;;;21.60;99.90;;;;;;5067440;28;20206;-62
2022/07/14 02:19:04;;;;;;;0.40;0.40;;;21.60;99.90;;;;;;5074226;28;20207;-63
2022/07/14 02:21:31;;;;;;;0.60;0.60;;;21.50;99.90;;;;;;5072163;28;20199;-62
2022/07/14 02:23:58;;;;;;;1.10;0.50;;;21.50;99.90;;;;;;5084928;28;20214;-62
2022/07/14 02:26:27;;;;;;;0.50;0.50;;;21.40;99.90;;;;;;5081235;28;20235;-62
2022/07/14 02:28:54;;;;;;;0.50;0.50;;;21.30;99.90;;;;;;5086737;28;20255;-62
2022/07/14 02:31:21;;;;;;;0.50;0.50;;;21.30;99.90;;;;;;5076261;28;20299;-62
2022/07/14 02:33:48;;;;;;;0.40;0.40;;;21.30;99.90;;;;;;5084403;28;20218;-62
2022/07/14 02:36:15;;;;;;;0.57;0.57;;;21.40;99.90;;;;;;5071191;28;20203;-62
2022/07/14 02:38:42;;;;;;;0.40;0.40;;;21.30;99.90;;;;;;5077761;28;20305;-62
2022/07/14 02:41:09;;;;;;;0.75;0.75;;;21.30;99.90;;;;;;5080921;28;20760;-62
2022/07/14 02:43:37;;;;;;;0.47;0.47;;;21.20;99.90;;;;;;5073847;28;20203;-61
2022/07/14 02:46:04;;;;;;;0.55;0.55;;;21.10;99.90;;;;;;5082840;28;20308;-61
2022/07/14 02:48:31;;;;;;;0.40;0.40;;;21.10;99.90;;;;;;5070577;28;20890;-62
2022/07/14 02:51:00;;;;;;;0.57;0.57;;;21.00;99.90;;;;;;5089544;28;20276;-62
2022/07/14 02:53:27;;;;;;;0.30;0.30;;;20.90;99.90;;;;;;5068707;28;20224;-62
2022/07/14 02:55:53;;;;;;;0.50;0.50;;;20.80;99.90;;;;;;5077549;28;20194;-62
2022/07/14 02:58:20;;;;;;;0.25;0.25;;;20.80;99.90;;;;;;5082038;28;20552;-62
2022/07/14 03:00:49;;;;;;;0.30;0.30;;;20.80;99.90;;;;;;5075407;28;20285;-62
2022/07/14 03:03:16;;;;;;;0.50;0.50;;;20.80;99.90;;;;;;5079375;28;20203;-62
2022/07/14 03:05:43;;;;;;;1.05;0.50;;;20.80;99.90;;;;;;5068831;28;20294;-63
2022/07/14 03:08:10;;;;;;;0.40;0.40;;;20.80;99.90;;;;;;5079425;28;20594;-63
2022/07/14 03:10:37;;;;;;;0.40;0.40;;;20.80;99.90;;;;;;5067124;28;20214;-63
2022/07/14 03:13:04;;;;;;;0.80;0.63;;;20.70;99.90;;;;;;5076706;28;20309;-63
2022/07/14 03:15:30;;;;;;;0.55;0.55;;;20.70;99.90;;;;;;5079833;28;20227;-62
2022/07/14 03:17:59;;;;;;;0.52;0.52;;;20.60;99.90;;;;;;5080544;28;20231;-62
2022/07/14 03:20:26;;;;;;;0.45;0.45;;;20.60;99.90;;;;;;5069100;28;20209;-63
2022/07/14 03:22:53;;;;;;;0.60;0.60;;;20.50;99.90;;;;;;5075525;28;20290;-63
2022/07/14 03:25:20;;;;;;;0.68;0.65;;;20.50;99.90;;;;;;5067655;28;20545;-63
2022/07/14 03:27:47;;;;;;;0.35;0.35;;;20.50;99.90;;;;;;5073478;28;20313;-63
2022/07/14 03:30:15;;;;;;;0.47;0.47;;;20.50;99.90;;;;;;5078403;28;20265;-63
2022/07/14 03:32:42;;;;;;;0.50;0.50;;;20.50;99.90;;;;;;5071258;28;20235;-63
2022/07/14 03:35:11;;;;;;;0.40;0.40;;;20.40;99.90;;;;;;5076361;28;20231;-61
2022/07/14 03:37:37;;;;;;;0.50;0.50;;;20.40;99.90;;;;;;5069676;28;20672;-64
2022/07/14 03:40:06;;;;;;;0.38;0.38;;;20.30;99.90;;;;;;5073186;28;20294;-64
2022/07/14 03:42:33;;;;;;;0.30;0.30;;;20.20;99.90;;;;;;5067477;28;20726;-61
2022/07/14 03:45:00;;;;;;;0.38;0.38;;;20.20;99.90;;;;;;5071330;28;20298;-62
2022/07/14 03:47:27;;;;;;;0.43;0.43;;;20.10;99.90;;;;;;5073967;28;20758;-62
2022/07/14 03:49:54;;;;;;;0.65;0.65;;;20.00;99.90;;;;;;5067090;28;20693;-64
2022/07/14 03:52:22;;;;;;;0.50;0.50;;;20.00;99.90;;;;;;5076751;28;20638;-62
2022/07/14 03:54:49;;;;;;;0.50;0.50;;;19.90;99.90;;;;;;5069230;28;20230;-61
2022/07/14 03:57:16;;;;;;;1.45;0.43;;;19.80;99.90;;;;;;5076953;28;20224;-64
2022/07/14 03:59:42;;;;;;;0.90;0.50;;;19.80;99.90;;;;;;5078497;28;20200;-63
2022/07/14 04:02:09;;;;;;;0.57;0.57;;;19.80;99.90;;;;;;5082313;28;20222;-63
2022/07/14 04:04:36;;;;;;;0.60;0.60;;;19.80;99.90;;;;;;5079166;28;20581;-63
2022/07/14 04:07:03;;;;;;;0.60;0.60;;;19.80;99.90;;;;;;5070068;28;20291;-63
2022/07/14 04:09:32;;;;;;;0.50;0.50;;;19.80;99.90;;;;;;5077213;28;20645;-62
2022/07/14 04:11:59;;;;;;;0.60;0.60;;;19.90;99.90;;;;;;5068211;28;20211;-63
2022/07/14 04:14:26;;;;;;;0.60;0.60;;;19.80;99.90;;;;;;5078291;28;20317;-63
2022/07/14 04:16:53;;;;;;;0.55;0.55;;;19.70;99.90;;;;;;5083221;28;20230;-63
2022/07/14 04:19:20;;;;;;;0.60;0.60;;;19.70;99.90;;;;;;5067485;28;20662;-62
2022/07/14 04:21:47;;;;;;;0.70;0.70;;;19.60;99.90;;;;;;5065799;28;20239;-62
2022/07/14 04:24:14;;;;;;;0.50;0.50;;;19.60;99.90;;;;;;5079037;28;20681;-62
2022/07/14 04:26:43;;;;;;;0.45;0.45;;;19.60;99.90;;;;;;5072214;28;20275;-62
2022/07/14 04:29:10;;;;;;;1.17;0.60;;;19.70;99.90;;;;;;5077246;28;20213;-63
2022/07/14 04:31:37;;;;;;;0.60;0.60;;;19.70;99.90;;;;;;5069647;28;20674;-62
2022/07/14 04:34:04;;;;;;;0.45;0.45;;;19.60;99.90;;;;;;5076727;28;20699;-62
2022/07/14 04:36:31;;;;;;;0.40;0.40;;;19.60;99.90;;;;;;5066018;28;20200;-64
2022/07/14 04:38:58;;;;;;;0.60;0.60;;;19.60;99.90;;;;;;5060393;28;20199;-62
2022/07/14 04:41:25;;;;;;;0.73;0.73;;;19.60;99.90;;;;;;5062380;28;20206;-62
2022/07/14 04:43:53;;;;;;;0.40;0.40;;;19.60;99.90;;;;;;5062886;28;20207;-64
2022/07/14 04:46:20;;;;;;;0.57;0.57;;;19.60;99.90;;;;;;5069322;28;20693;-62
2022/07/14 04:54:15;;;;;;;0.45;0.45;;;19.60;99.90;;;;;;5069780;28;20223;-63
2022/07/14 04:56:42;;;;;;;0.50;0.50;;;19.60;99.90;;;;;;5071906;28;20326;-65
2022/07/14 04:59:10;;;;;;;0.73;0.70;;;19.60;99.90;;;;;;5076525;28;20270;-64
2022/07/14 05:01:37;;;;;;;0.50;0.50;;;19.70;99.90;;;;;;5072108;28;20270;-63
2022/07/14 05:04:04;;;;;;;0.80;0.60;;;19.70;99.90;;;;;;5069132;28;20217;-61
2022/07/14 05:06:31;;;;;;;0.73;0.73;;;19.80;99.90;;;;;;5066596;28;20199;-60
2022/07/14 05:08:57;;;;;;;0.75;0.75;;;20.20;99.90;;;;;;5069953;28;20210;-59
2022/07/14 05:11:24;;;;;;;0.90;0.90;;;20.70;99.90;;;;;;5065732;28;20195;-60
2022/07/14 05:13:53;;;;;;;0.80;0.80;;;21.00;99.90;;;;;;5060491;28;20237;-59
2022/07/14 05:16:21;;;;;;;2.60;0.80;;;21.30;99.90;;;;;;5065181;28;20631;-59
2022/07/14 05:18:48;;;;;;;1.33;0.80;;;21.50;99.90;;;;;;5111555;22;20234;-61
2022/07/14 05:21:15;;;;;;;0.52;0.52;;;21.70;99.90;;;;;;5089436;28;20302;-60
2022/07/14 05:23:42;;;;;;;0.80;0.80;;;21.90;99.90;;;;;;5076602;28;20639;-61
2022/07/14 05:26:13;;;;;;;0.70;0.70;;;22.20;99.90;;;;;;5090819;28;20201;-60
2022/07/14 05:28:40;;;;;;;0.70;0.70;;;22.40;99.90;;;;;;5081936;28;20337;-60
2022/07/14 05:31:07;;;;;;;0.90;0.90;;;22.50;99.90;;;;;;5091000;28;20729;-60
2022/07/14 05:33:36;;;;;;;0.80;0.80;;;22.70;99.90;;;;;;5085870;28;20210;-60
2022/07/14 05:36:04;;;;;;;0.95;0.85;;;22.90;99.90;;;;;;5090957;28;20621;-59
2022/07/14 05:38:32;;;;;;;0.82;0.82;;;23.10;99.90;;;;;;5087868;28;20221;-61
2022/07/14 05:41:01;;;;;;;0.68;0.68;;;23.20;99.90;;;;;;5084789;28;20191;-63
2022/07/14 05:43:28;;;;;;;1.13;0.75;;;23.30;99.90;;;;;;5082203;28;20202;-65
2022/07/14 05:45:55;;;;;;;0.80;0.80;;;23.10;99.90;;;;;;5086166;28;20273;-64
2022/07/14 05:48:22;;;;;;;0.70;0.70;;;23.00;99.90;;;;;;5084634;28;20301;-65
2022/07/14 05:50:51;;;;;;;0.70;0.70;;;22.90;99.90;;;;;;5094738;28;20245;-64
2022/07/14 05:53:17;;;;;;;0.80;0.80;;;22.80;99.90;;;;;;5093317;28;20230;-65
2022/07/14 05:55:46;;;;;;;1.23;0.85;;;22.80;99.90;;;;;;5090226;28;20230;-65
2022/07/14 05:58:13;;;;;;;0.70;0.70;;;22.70;99.90;;;;;;5092448;28;20288;-63
2022/07/14 06:00:40;;;;;;;0.73;0.70;;;22.60;99.90;;;;;;5089090;28;20297;-63
2022/07/14 06:03:07;;;;;;;0.80;0.80;;;22.60;99.90;;;;;;5086715;28;20207;-66
2022/07/14 06:05:35;;;;;;;1.85;0.90;;;22.60;99.90;;;;;;5095057;28;20634;-63
2022/07/14 06:08:03;;;;;;;1.05;0.95;;;22.60;99.90;;;;;;5089084;28;20241;-66
2022/07/14 06:10:30;;;;;;;2.58;0.88;;;22.60;99.90;;;;;;5085424;28;20298;-65
2022/07/14 06:12:57;;;;;;;1.00;0.80;;;22.60;99.90;;;;;;5093532;28;20277;-64
2022/07/14 06:15:24;;;;;;;1.25;1.13;;;22.50;99.90;;;;;;5093278;28;20228;-64
2022/07/14 06:17:51;;;;;;;0.65;0.65;;;22.50;99.90;;;;;;5092927;28;20235;-64
2022/07/14 06:20:18;;;;;;;0.73;0.73;;;22.50;99.90;;;;;;5090600;28;20665;-65
2022/07/14 06:22:45;;;;;;;0.60;0.60;;;22.50;99.90;;;;;;5091440;28;20205;-63
2022/07/14 06:25:13;;;;;;;1.42;0.70;;;22.40;99.90;;;;;;5087912;28;20230;-63
2022/07/14 06:27:40;;;;;;;0.50;0.50;;;22.40;99.90;;;;;;5085011;28;20302;-63
2022/07/14 06:30:09;;;;;;;0.95;0.80;;;22.40;99.90;;;;;;5086632;28;20206;-64
2022/07/14 06:32:39;;;;;;;0.70;0.70;;;22.40;99.90;;;;;;5082840;28;20301;-66
2022/07/14 06:35:06;;;;;;;0.80;0.80;;;22.50;99.90;;;;;;5086764;28;20218;-66
2022/07/14 06:37:34;;;;;;;0.82;0.70;;;22.70;99.90;;;;;;5089541;28;20306;-64
2022/07/14 06:40:04;;;;;;;0.57;0.57;;;22.90;99.90;;;;;;5091614;28;20264;-64
2022/07/14 06:42:32;;;;;;;0.77;0.77;;;23.20;99.90;;;;;;5084250;28;20210;-65
2022/07/14 06:44:59;;;;;;;0.85;0.85;;;23.40;99.90;;;;;;5094307;28;20289;-64
2022/07/14 06:47:26;;;;;;;1.27;0.90;;;23.60;99.90;;;;;;5089752;28;20649;-65
2022/07/14 06:49:53;;;;;;;1.02;0.85;;;23.70;99.90;;;;;;5089242;28;20207;-64
2022/07/14 06:52:20;;;;;;;0.85;0.80;;;24.00;99.90;;;;;;5087873;28;20771;-63
2022/07/14 06:54:47;;;;;;;0.80;0.80;;;24.20;99.90;;;;;;5093973;28;20250;-64
2022/07/14 06:57:14;;;;;;;0.80;0.80;;;24.40;99.90;;;;;;5103141;28;20915;-63
2022/07/14 06:59:42;;;;;;;0.93;0.60;;;24.40;99.90;;;;;;5086361;28;20206;-65
2022/07/14 07:02:09;;;;;;;0.88;0.88;;;24.50;99.90;;;;;;5091104;28;20206;-64
2022/07/14 07:04:35;;;;;;;0.93;0.80;;;24.60;99.90;;;;;;5081442;28;20289;-63
2022/07/14 07:07:01;;;;;;;1.05;0.95;;;24.80;99.90;;;;;;5093458;28;20702;-65
2022/07/14 07:09:28;;;;;;;0.90;0.90;;;24.90;99.90;;;;;;5083782;28;20293;-63
2022/07/14 07:11:55;;;;;;;1.02;1.02;;;25.10;99.90;;;;;;5085460;28;20301;-63
2022/07/14 07:14:22;;;;;;;0.70;0.70;;;25.30;99.90;;;;;;5094047;28;20282;-63
2022/07/14 07:16:51;;;;;;;0.73;0.73;;;25.50;99.90;;;;;;5087823;28;20613;-64
2022/07/14 07:19:18;;;;;;;0.47;0.47;;;25.60;99.90;;;;;;5092444;28;20201;-64
2022/07/14 07:21:45;;;;;;;0.90;0.90;;;25.70;99.90;;;;;;5093424;28;20286;-65
2022/07/14 07:24:12;;;;;;;1.33;0.93;;;25.90;99.90;;;;;;5084229;28;20628;-64
2022/07/14 07:26:41;;;;;;;0.90;0.90;;;26.00;99.90;;;;;;5091058;28;20285;-63
2022/07/14 07:29:08;;;;;;;0.88;0.88;;;26.00;99.90;;;;;;5086481;28;20585;-63
2022/07/14 07:31:35;;;;;;;0.70;0.70;;;26.20;99.90;;;;;;5089916;28;20286;-64
2022/07/14 07:34:05;;;;;;;0.73;0.73;;;26.40;99.90;;;;;;5093047;28;20290;-64
2022/07/14 07:36:32;;;;;;;1.02;0.88;;;26.70;99.90;;;;;;5088304;28;20261;-63
2022/07/14 07:38:58;;;;;;;0.95;0.95;;;26.90;99.90;;;;;;5082308;28;20273;-63
2022/07/14 07:41:26;;;;;;;0.60;0.60;;;27.10;99.90;;;;;;5089196;28;20894;-64
2022/07/14 07:43:53;;;;;;;0.50;0.50;;;27.20;99.90;;;;;;5089018;28;20623;-65
2022/07/14 07:46:20;;;;;;;0.60;0.60;;;27.30;99.90;;;;;;5086558;28;20199;-64
2022/07/14 07:48:47;;;;;;;0.80;0.80;;;27.40;99.90;;;;;;5092973;28;20301;-64
2022/07/14 07:51:15;;;;;;;0.77;0.60;;;27.50;99.90;;;;;;5091592;28;20242;-64
2022/07/14 07:53:43;;;;;;;0.80;0.80;;;27.80;99.90;;;;;;5092799;28;20218;-63
2022/07/14 07:56:10;;;;;;;0.90;0.88;;;28.10;99.90;;;;;;5088479;28;20263;-65
2022/07/14 07:58:37;;;;;;;0.68;0.68;;;28.30;99.90;;;;;;5086819;28;20230;-64
2022/07/14 08:01:04;;;;;;;0.88;0.88;;;28.30;99.90;;;;;;5084501;28;20202;-65
2022/07/14 08:03:31;;;;;;;1.05;0.80;;;28.50;99.90;;;;;;5080797;28;20226;-64
2022/07/14 08:05:58;;;;;;;0.60;0.60;;;28.70;99.90;;;;;;5089884;28;20278;-66
2022/07/14 08:08:26;;;;;;;0.70;0.70;;;28.90;99.90;;;;;;5088931;28;20263;-65
2022/07/14 08:10:54;;;;;;;0.70;0.70;;;28.90;99.90;;;;;;5090845;28;20740;-64
2022/07/14 08:13:21;;;;;;;0.60;0.60;;;29.10;99.90;;;;;;5087018;28;20202;-65
2022/07/14 08:15:47;;;;;;;1.10;0.63;;;29.20;99.90;;;;;;5083296;28;20254;-65
2022/07/14 08:18:16;;;;;;;0.75;0.75;;;29.40;99.90;;;;;;5090036;28;20264;-64
2022/07/14 08:20:43;;;;;;;0.60;0.60;;;29.60;99.90;;;;;;5082632;28;20245;-64
2022/07/14 08:23:10;;;;;;;1.17;1.10;;;29.60;99.90;;;;;;5089993;28;20233;-64
2022/07/14 08:25:38;;;;;;;0.98;0.80;;;29.80;99.90;;;;;;5091962;28;20201;-64
2022/07/14 08:28:05;;;;;;;0.70;0.70;;;30.00;99.90;;;;;;5090550;28;20299;-64
2022/07/14 08:30:32;;;;;;;0.60;0.60;;;30.10;99.90;;;;;;5089892;28;20602;-64
2022/07/14 08:32:59;;;;;;;0.70;0.70;;;30.20;99.90;;;;;;5105068;28;20629;-64
2022/07/14 08:35:27;;;;;;;0.70;0.70;;;30.30;99.90;;;;;;5099587;28;20206;-65
2022/07/14 08:37:55;;;;;;;0.80;0.80;;;30.40;99.90;;;;;;5094121;28;20306;-64
2022/07/14 08:40:24;;;;;;;0.70;0.70;;;30.40;99.90;;;;;;5074111;28;20305;-64
2022/07/14 08:42:53;;;;;;;0.60;0.60;;;30.50;99.90;;;;;;5086174;28;20720;-65
2022/07/14 08:45:22;;;;;;;0.77;0.77;;;30.70;99.90;;;;;;5094004;28;20301;-64
2022/07/14 08:47:50;;;;;;;0.70;0.70;;;30.90;99.90;;;;;;5089193;28;20280;-63
2022/07/14 08:50:19;;;;;;;2.78;0.90;;;31.10;99.90;;;;;;5084542;28;20230;-64
2022/07/14 08:52:48;;;;;;;0.70;0.60;;;31.20;99.30;;;;;;5084696;28;20206;-65
2022/07/14 08:55:16;;;;;;;1.95;0.68;;;31.40;98.10;;;;;;5089117;28;20207;-65
2022/07/14 08:57:44;;;;;;;0.65;0.65;;;31.40;97.30;;;;;;5083509;28;20322;-65
2022/07/14 09:00:15;;;;;;;1.63;1.50;;;31.60;97.60;;;;;;5088825;28;20669;-65
2022/07/14 09:02:48;;;;;;;1.02;0.80;;;31.70;97.40;;;;;;5096886;28;20205;-65
2022/07/14 09:05:16;;;;;;;0.80;0.80;;;31.70;96.40;;;;;;5084247;28;20244;-65
2022/07/14 09:07:43;;;;;;;0.90;0.90;;;31.70;96.40;;;;;;5088066;28;20275;-65
2022/07/14 09:10:11;;;;;;;0.50;0.50;;;31.80;95.60;;;;;;5084721;28;20218;-65
2022/07/14 09:12:39;;;;;;;0.70;0.70;;;31.90;95.00;;;;;;5091097;28;20210;-66
2022/07/14 09:17:56;;;;;;;1.17;0.80;;;31.90;93.30;;;;;;5087275;28;20249;-66
2022/07/14 09:20:24;;;;;;;0.82;0.60;;;31.90;93.00;;;;;;5081585;28;20198;-65
2022/07/14 09:22:55;;;;;;;0.63;0.63;;;32.00;92.80;;;;;;5087438;28;20201;-64
2022/07/14 09:25:23;;;;;;;0.80;0.80;;;32.10;92.90;;;;;;5087092;28;20202;-65
2022/07/14 09:27:50;;;;;;;0.70;0.70;;;32.30;92.90;;;;;;5091223;28;20311;-65
2022/07/14 09:30:17;;;;;;;0.60;0.60;;;32.30;92.20;;;;;;5094568;28;20212;-66
2022/07/14 09:32:57;;;;;;;0.60;0.60;;;32.30;92.20;;;;;;5086033;28;20917;-64
2022/07/14 09:35:27;;;;;;;0.85;0.82;;;32.40;91.90;;;;;;5087753;28;20210;-66
2022/07/14 09:37:55;;;;;;;1.45;0.95;;;32.50;92.30;;;;;;5088444;28;20309;-64
2022/07/14 09:40:25;;;;;;;0.60;0.60;;;32.70;92.20;;;;;;5086498;28;20245;-65
2022/07/14 09:42:56;;;;;;;1.13;0.80;;;32.80;91.00;;;;;;5091679;28;20281;-64
2022/07/14 09:45:26;;;;;;;1.17;0.80;;;32.80;90.50;;;;;;5087421;28;20203;-64
2022/07/14 09:47:56;;;;;;;1.90;0.90;;;32.80;90.60;;;;;;5092291;28;20722;-63
2022/07/14 09:50:34;;;;;;;0.60;0.60;;;32.90;90.10;;;;;;5086840;28;20282;-66
2022/07/14 09:53:10;;;;;;;1.08;0.80;;;33.00;90.00;;;;;;5087643;28;20317;-64
2022/07/14 09:55:39;;;;;;;2.35;1.10;;;33.20;90.20;;;;;;5093660;28;20225;-66
2022/07/14 09:58:06;;;;;;;2.05;0.98;;;33.20;85.50;;;;;;5092919;28;20696;-64
2022/07/14 10:00:35;;;;;;;1.60;0.90;;;33.30;85.30;;;;;;5089506;28;20289;-66
2022/07/14 10:03:04;;;;;;;0.80;0.80;;;33.30;86.00;;;;;;5091512;28;20206;-64
2022/07/14 10:05:33;;;;;;;2.10;0.90;;;33.40;85.10;;;;;;5094975;28;20655;-65
2022/07/14 10:08:03;;;;;;;2.05;0.80;;;33.50;85.00;;;;;;5094491;28;20238;-65
2022/07/14 10:10:34;;;;;;;1.65;0.77;;;33.60;85.00;;;;;;5087572;28;20259;-64
2022/07/14 10:13:02;;;;;;;0.80;0.80;;;33.70;84.60;;;;;;5089376;28;20199;-65
2022/07/14 10:15:30;;;;;;;0.70;0.70;;;33.80;83.40;;;;;;5099327;28;20293;-65
2022/07/14 10:18:00;;;;;;;0.65;0.65;;;33.80;83.60;;;;;;5088246;28;20235;-64
2022/07/14 10:20:29;;;;;;;0.70;0.70;;;34.00;84.00;;;;;;5086312;28;20644;-65
2022/07/14 10:22:56;;;;;;;1.05;0.80;;;34.10;83.00;;;;;;5080519;28;20268;-65
2022/07/14 10:25:23;;;;;;;0.70;0.70;;;34.30;82.20;;;;;;5094167;28;20238;-64
2022/07/14 10:27:51;;;;;;;0.70;0.70;;;34.40;80.90;;;;;;5087934;28;20224;-65
2022/07/14 10:30:18;;;;;;;0.60;0.60;;;34.30;80.90;;;;;;5088167;28;20286;-64
2022/07/14 10:32:55;;;;;;;0.65;0.60;;;34.50;81.90;;;;;;5089393;28;20241;-64
2022/07/14 10:35:35;;;;;;;0.70;0.70;;;34.50;81.90;;;;;;5080736;28;20226;-65
2022/07/14 10:38:23;;;;;;;1.27;0.65;;;34.70;81.70;;;;;;5092817;28;20699;-64
2022/07/14 10:41:00;;;;;;;0.88;0.68;;;34.60;81.50;;;;;;5089734;28;20664;-63
2022/07/14 10:43:48;;;;;;;0.60;0.60;;;34.60;82.90;;;;;;5087421;28;20570;-63
2022/07/14 10:46:34;;;;;;;0.70;0.70;;;34.40;81.50;;;;;;5088006;28;20645;-66
2022/07/14 10:49:02;;;;;;;2.85;0.93;;;34.40;84.20;;;;;;5087837;28;20309;-65
2022/07/14 10:51:32;;;;;;;0.95;0.65;;;34.50;82.40;;;;;;5092074;28;20297;-65
2022/07/14 10:54:08;;;;;;;0.75;0.75;;;34.50;84.30;;;;;;5091865;28;20203;-64
2022/07/14 10:56:36;;;;;;;1.27;1.17;;;34.50;83.30;;;;;;5089531;28;20226;-64
2022/07/14 10:59:31;;;;;;;1.55;0.75;;;34.40;82.50;;;;;;5091006;28;20230;-65
2022/07/14 11:02:31;;;;;;;0.60;0.60;;;34.40;82.60;;;;;;5082491;28;20235;-64
2022/07/14 11:05:11;;;;;;;0.70;0.70;;;34.10;83.50;;;;;;5092823;28;20241;-64
2022/07/14 11:07:46;;;;;;;1.20;0.93;;;34.00;83.80;;;;;;5097103;28;20218;-64
2022/07/14 11:11:11;;;;;;;0.60;0.60;;;34.00;84.30;;;;;;5078971;28;20203;-65
2022/07/14 11:14:04;;;;;;;1.65;0.80;;;34.10;85.70;;;;;;5082131;28;20234;-64
2022/07/14 11:16:59;;;;;;;2.05;0.90;;;34.00;86.30;;;;;;5081545;28;20270;-65
2022/07/14 11:19:31;;;;;;;0.70;0.70;;;34.40;87.10;;;;;;5088538;22;20238;-66
2022/07/14 11:22:16;;;;;;;0.75;0.75;;;34.80;87.60;;;;;;5073538;28;20203;-66
2022/07/14 11:24:50;;;;;;;0.90;0.70;;;34.90;87.00;;;;;;5067057;28;20203;-67
2022/07/14 11:27:35;;;;;;;0.70;0.70;;;35.10;86.30;;;;;;5073605;28;20287;-66
2022/07/14 11:30:21;;;;;;;1.30;0.60;;;34.90;85.60;;;;;;5050355;28;20207;-67
2022/07/14 11:33:02;;;;;;;0.63;0.63;;;35.00;86.40;;;;;;5052152;28;20647;-66
2022/07/14 11:38:28;;;;;;;0.63;0.63;;;34.90;84.50;;;;;;5047167;28;20353;-67
2022/07/14 11:40:57;;;;;;;1.10;1.00;;;35.00;85.70;;;;;;5049059;28;20196;-66
2022/07/14 11:43:48;;;;;;;1.42;0.85;;;35.00;83.90;;;;;;5052969;28;20299;-66
2022/07/14 11:46:17;;;;;;;0.95;0.95;;;35.20;83.10;;;;;;5051569;28;20284;-66
2022/07/14 11:48:46;;;;;;;0.90;0.90;;;35.30;82.30;;;;;;5052342;28;20789;-66
2022/07/14 11:51:18;;;;;;;0.80;0.80;;;35.30;83.80;;;;;;5052567;28;20211;-67
2022/07/14 11:53:45;;;;;;;1.35;0.98;;;35.40;84.60;;;;;;5053033;28;20573;-65
2022/07/14 11:56:13;;;;;;;0.82;0.82;;;35.50;84.30;;;;;;5053634;28;20310;-67
2022/07/14 11:58:41;;;;;;;2.25;0.70;;;35.70;84.10;;;;;;5052547;28;20254;-67
2022/07/14 12:01:09;;;;;;;1.05;0.95;;;35.70;83.60;;;;;;5051767;28;20232;-67
2022/07/14 12:03:37;;;;;;;0.80;0.80;;;35.70;84.10;;;;;;5057310;28;20204;-67
2022/07/14 12:06:04;;;;;;;0.80;0.80;;;35.80;83.70;;;;;;5052691;28;20606;-68
2022/07/14 12:08:33;;;;;;;1.85;0.93;;;35.80;82.10;;;;;;5053066;28;20584;-66
2022/07/14 12:11:08;;;;;;;2.95;0.77;;;35.70;81.70;;;;;;5051618;28;20295;-67
2022/07/14 12:13:47;;;;;;;0.90;0.90;;;35.80;82.10;;;;;;5052000;28;20260;-66
2022/07/14 12:16:14;;;;;;;0.93;0.93;;;35.80;80.30;;;;;;5051068;28;20204;-66
2022/07/14 12:18:41;;;;;;;0.80;0.80;;;35.80;80.30;;;;;;5051457;28;20323;-67
2022/07/14 12:21:08;;;;;;;0.60;0.60;;;35.80;80.70;;;;;;5051122;28;20547;-66
2022/07/14 12:23:35;;;;;;;0.85;0.70;;;35.90;80.10;;;;;;5051561;28;20200;-67
2022/07/14 12:26:04;;;;;;;1.23;0.80;;;35.80;80.80;;;;;;5051491;28;20211;-66
2022/07/14 12:28:30;;;;;;;0.60;0.60;;;36.00;80.10;;;;;;5052040;28;20220;-67
2022/07/14 12:31:00;;;;;;;0.90;0.90;;;36.00;79.70;;;;;;5052339;28;20207;-68
2022/07/14 12:33:29;;;;;;;1.75;0.85;;;36.10;79.30;;;;;;5052102;28;20338;-65
2022/07/14 12:35:58;;;;;;;0.68;0.68;;;36.00;78.90;;;;;;5050432;28;20208;-66
2022/07/14 12:38:27;;;;;;;0.88;0.88;;;36.00;79.10;;;;;;5042689;28;20251;-67
2022/07/14 12:40:57;;;;;;;0.70;0.70;;;36.00;80.30;;;;;;5046986;28;20641;-66
2022/07/14 12:43:24;;;;;;;0.90;0.90;;;36.20;80.60;;;;;;5048809;28;20290;-67
2022/07/14 12:46:05;;;;;;;0.80;0.80;;;36.20;79.50;;;;;;5052733;28;20283;-66
2022/07/14 12:48:34;;;;;;;0.80;0.80;;;36.30;78.70;;;;;;5051398;28;20778;-66
2022/07/14 12:51:20;;;;;;;0.90;0.75;;;36.30;78.80;;;;;;5050874;28;20306;-66
2022/07/14 12:54:12;;;;;;;1.27;0.85;;;36.30;78.20;;;;;;5050820;28;20279;-65
2022/07/14 12:56:47;;;;;;;0.82;0.82;;;36.20;78.70;;;;;;5036515;28;20251;-67
2022/07/14 12:59:16;;;;;;;0.70;0.70;;;36.00;78.60;;;;;;5052863;28;20219;-67
2022/07/14 13:01:51;;;;;;;1.98;0.90;;;35.90;79.20;;;;;;5059403;28;20286;-67
2022/07/14 13:04:29;;;;;;;0.88;0.88;;;35.80;79.10;;;;;;5059667;28;20212;-67
2022/07/14 13:06:56;;;;;;;1.50;0.90;;;36.00;81.10;;;;;;5056564;28;20338;-67
2022/07/14 13:09:23;;;;;;;3.03;1.02;;;36.30;80.10;;;;;;5053604;28;20235;-68
2022/07/14 13:11:50;;;;;;;1.17;0.90;;;36.40;80.00;;;;;;5058270;28;20261;-67
2022/07/14 13:14:17;;;;;;;0.90;0.85;;;36.40;78.80;;;;;;5060534;28;20313;-66